Time;durP1;ratioP1;P1;durP2;ratioP2;P2;SDS_P1;SDS_P2;PMS_P1;PMS_P2;Temp;Humidity;BMP_temperature;BMP_pressure;BME280_temperature;BME280_humidity;BME280_pressure;Samples;Min_cycle;Max_cycle;Signal;HPM_P1;HPM_P2
2023/12/11 00:00:06;;;;;;;0.80;0.70;;;;;;;11.69;71.74;98734.63;5036794;28;20659;-77
2023/12/11 00:02:32;;;;;;;0.80;0.80;;;;;;;11.69;72.13;98716.22;5037413;28;20227;-77
2023/12/11 00:04:57;;;;;;;1.40;0.93;;;;;;;11.73;72.12;98701.00;5038706;28;20222;-78
2023/12/11 00:07:23;;;;;;;1.35;0.90;;;;;;;11.78;72.18;98724.31;5036918;28;20431;-78
2023/12/11 00:09:48;;;;;;;1.40;0.70;;;;;;;11.81;72.26;98718.78;5039390;28;20250;-78
2023/12/11 00:12:14;;;;;;;1.43;0.83;;;;;;;11.81;72.38;98708.25;5038927;28;20288;-77
2023/12/11 00:14:39;;;;;;;1.30;0.80;;;;;;;11.84;72.42;98703.56;5038845;28;20217;-77
2023/12/11 00:17:04;;;;;;;1.43;0.80;;;;;;;11.87;72.31;98723.56;5036104;28;20201;-77
2023/12/11 00:19:30;;;;;;;1.47;0.80;;;;;;;11.86;72.58;98716.66;5038812;28;20531;-77
2023/12/11 00:21:55;;;;;;;0.70;0.53;;;;;;;11.87;72.61;98726.19;5035857;28;20194;-77
2023/12/11 00:24:21;;;;;;;0.83;0.70;;;;;;;11.86;72.85;98722.72;5040200;28;20227;-77
2023/12/11 00:26:46;;;;;;;1.60;0.70;;;;;;;11.87;72.88;98718.31;5040443;28;20197;-77
2023/12/11 00:29:12;;;;;;;1.40;0.90;;;;;;;11.87;72.83;98710.41;5040480;28;20232;-76
2023/12/11 00:31:37;;;;;;;0.90;0.80;;;;;;;11.84;73.01;98716.72;5037435;28;20283;-76
2023/12/11 00:34:03;;;;;;;1.67;1.57;;;;;;;11.83;73.46;98727.41;5042769;28;20296;-77
2023/12/11 00:36:28;;;;;;;0.90;0.70;;;;;;;11.81;73.82;98727.50;5028427;28;20254;-76
2023/12/11 00:38:53;;;;;;;1.13;0.70;;;;;;;11.84;73.76;98723.78;5029172;28;20891;-77
2023/12/11 00:41:19;;;;;;;1.17;0.90;;;;;;;11.84;74.03;98714.09;5026108;28;20229;-77
2023/12/11 00:43:44;;;;;;;1.80;1.47;;;;;;;11.82;74.49;98723.06;5025824;28;20230;-77
2023/12/11 00:46:21;;;;;;;1.40;0.70;;;;;;;11.86;74.49;98724.53;5029167;28;20251;-76
2023/12/11 00:48:46;;;;;;;0.82;0.70;;;;;;;11.87;74.71;98723.56;5027122;28;20210;-77
2023/12/11 00:51:19;;;;;;;1.90;0.60;;;;;;;11.90;74.90;98728.56;5027702;28;20283;-77
2023/12/11 00:53:45;;;;;;;0.90;0.77;;;;;;;11.93;74.66;98725.69;5022105;28;20254;-76
2023/12/11 00:56:11;;;;;;;0.75;0.68;;;;;;;11.95;75.22;98735.13;5022999;28;20356;-76
2023/12/11 00:58:36;;;;;;;0.80;0.70;;;;;;;12.04;75.17;98730.03;5021698;28;20569;-76
2023/12/11 01:01:02;;;;;;;0.80;0.60;;;;;;;12.06;75.23;98734.22;5021022;28;20276;-76
2023/12/11 01:03:27;;;;;;;0.80;0.60;;;;;;;12.07;75.24;98730.63;5015663;28;20484;-76
2023/12/11 01:05:53;;;;;;;0.70;0.70;;;;;;;12.10;75.70;98725.13;5015333;28;20210;-77
2023/12/11 01:08:18;;;;;;;0.80;0.80;;;;;;;12.15;75.82;98727.34;5019107;28;20214;-77
2023/12/11 01:10:44;;;;;;;2.30;0.60;;;;;;;12.15;75.58;98730.84;5016273;28;20186;-76
2023/12/11 01:13:09;;;;;;;1.53;1.20;;;;;;;12.12;75.79;98728.47;5014900;28;20206;-77
2023/12/11 01:15:34;;;;;;;1.10;0.60;;;;;;;12.14;75.73;98728.31;5023725;28;20268;-77
2023/12/11 01:18:00;;;;;;;0.70;0.70;;;;;;;12.13;75.81;98729.28;5018016;28;20206;-77
2023/12/11 01:20:25;;;;;;;2.03;0.70;;;;;;;12.12;75.94;98738.13;5023268;28;20228;-75
2023/12/11 01:22:50;;;;;;;0.93;0.83;;;;;;;12.11;75.92;98741.75;5024722;28;20218;-76
2023/12/11 01:25:16;;;;;;;0.80;0.70;;;;;;;12.10;76.11;98746.19;5021821;28;20887;-76
2023/12/11 01:27:41;;;;;;;2.97;0.60;;;;;;;12.09;76.30;98731.31;5025217;28;20198;-77
2023/12/11 01:30:07;;;;;;;1.10;0.60;;;;;;;12.09;76.29;98735.75;5024414;28;20199;-76
2023/12/11 01:32:32;;;;;;;0.80;0.70;;;;;;;12.07;76.78;98724.53;5023117;28;20671;-77
2023/12/11 01:34:57;;;;;;;1.63;0.90;;;;;;;12.09;76.58;98736.59;5020603;28;20859;-77
2023/12/11 01:37:23;;;;;;;1.87;0.70;;;;;;;12.11;76.53;98739.94;5026075;28;20195;-77
2023/12/11 01:39:48;;;;;;;0.80;0.60;;;;;;;12.14;76.84;98737.03;5020034;28;20331;-77
2023/12/11 01:42:14;;;;;;;1.17;0.80;;;;;;;12.17;76.51;98743.84;5027757;28;20264;-76
2023/12/11 01:44:39;;;;;;;2.20;0.70;;;;;;;12.20;76.59;98743.59;5021987;28;20220;-76
2023/12/11 01:47:06;;;;;;;1.20;0.70;;;;;;;12.21;76.54;98745.28;5023507;28;20211;-76
2023/12/11 01:49:32;;;;;;;0.70;0.70;;;;;;;12.22;76.49;98754.84;5020180;28;20228;-76
2023/12/11 01:51:58;;;;;;;1.02;0.93;;;;;;;12.23;76.42;98751.22;5022786;28;20217;-76
2023/12/11 01:54:24;;;;;;;0.77;0.60;;;;;;;12.22;76.33;98748.75;5024870;28;20315;-76
2023/12/11 01:56:50;;;;;;;1.27;0.60;;;;;;;12.22;76.26;98754.00;5024395;28;20206;-76
2023/12/11 01:59:16;;;;;;;0.90;0.60;;;;;;;12.22;76.30;98754.00;5025921;28;20455;-77
2023/12/11 02:01:43;;;;;;;1.67;0.60;;;;;;;12.20;76.21;98748.03;5029406;28;20229;-77
2023/12/11 02:04:09;;;;;;;1.15;0.68;;;;;;;12.21;76.25;98750.53;5024791;28;20214;-76
2023/12/11 02:06:34;;;;;;;1.03;0.60;;;;;;;12.22;76.13;98748.75;5023659;28;20208;-76
2023/12/11 02:09:00;;;;;;;0.70;0.60;;;;;;;12.22;76.02;98757.47;5025796;28;20197;-77
2023/12/11 02:11:26;;;;;;;0.70;0.60;;;;;;;12.22;75.98;98762.72;5030069;28;20201;-76
2023/12/11 02:13:51;;;;;;;0.60;0.60;;;;;;;12.21;75.89;98758.44;5028944;28;20186;-76
2023/12/11 02:16:17;;;;;;;0.60;0.50;;;;;;;12.19;76.00;98752.47;5025787;28;20455;-76
2023/12/11 02:18:42;;;;;;;0.83;0.80;;;;;;;12.17;75.96;98746.47;5025734;28;20189;-76
2023/12/11 02:21:10;;;;;;;1.33;0.60;;;;;;;12.19;76.15;98755.09;5029546;28;20645;-76
2023/12/11 02:24:09;;;;;;;1.25;0.60;;;;;;;12.20;75.98;98759.38;5028869;28;21353;-77
2023/12/11 02:26:34;;;;;;;0.70;0.70;;;;;;;12.18;75.95;98750.81;5027104;28;20359;-78
2023/12/11 02:29:00;;;;;;;0.67;0.60;;;;;;;12.18;75.81;98751.63;5018157;28;20895;-77
2023/12/11 02:31:25;;;;;;;0.93;0.53;;;;;;;12.17;75.99;98757.84;5012403;28;20198;-76
2023/12/11 02:33:50;;;;;;;0.67;0.60;;;;;;;12.17;75.96;98762.28;5011915;28;20693;-76
2023/12/11 02:36:16;;;;;;;1.30;0.60;;;;;;;12.14;76.06;98755.47;5011432;28;20193;-76
2023/12/11 02:38:41;;;;;;;0.83;0.60;;;;;;;12.15;76.07;98751.03;5011930;28;20699;-76
2023/12/11 02:41:07;;;;;;;0.70;0.70;;;;;;;12.15;76.14;98748.41;5010839;28;20652;-77
2023/12/11 02:43:33;;;;;;;0.80;0.60;;;;;;;12.15;76.10;98744.00;5011937;28;20198;-76
2023/12/11 02:45:59;;;;;;;0.80;0.60;;;;;;;12.13;76.29;98735.38;5013099;28;20295;-76
2023/12/11 02:48:25;;;;;;;0.80;0.70;;;;;;;12.17;76.14;98730.69;5011988;28;20621;-76
2023/12/11 02:50:50;;;;;;;1.77;0.70;;;;;;;12.15;76.33;98722.94;5012992;28;20200;-77
2023/12/11 02:53:15;;;;;;;0.93;0.80;;;;;;;12.15;76.30;98725.56;5013837;28;20210;-78
2023/12/11 02:55:41;;;;;;;1.00;0.67;;;;;;;12.15;76.34;98736.09;5016385;28;20206;-77
2023/12/11 02:58:06;;;;;;;1.00;0.80;;;;;;;12.14;76.40;98734.41;5015658;28;20295;-77
2023/12/11 03:00:32;;;;;;;1.33;0.67;;;;;;;12.15;76.44;98735.25;5014278;28;20194;-77
2023/12/11 03:02:57;;;;;;;2.30;0.70;;;;;;;12.16;76.59;98739.56;5011545;28;20699;-76
2023/12/11 03:05:23;;;;;;;0.60;0.50;;;;;;;12.18;76.54;98737.63;5015300;28;20182;-77
2023/12/11 03:07:49;;;;;;;2.97;0.90;;;;;;;12.21;76.50;98733.91;5013838;28;20828;-77
2023/12/11 03:10:14;;;;;;;1.23;0.80;;;;;;;12.24;76.37;98731.03;5014940;28;20198;-76
2023/12/11 03:12:40;;;;;;;1.43;0.90;;;;;;;12.23;76.47;98724.06;5016434;28;20981;-76
2023/12/11 03:15:07;;;;;;;2.53;0.70;;;;;;;12.24;76.31;98718.69;5016327;28;20206;-76
2023/12/11 03:17:32;;;;;;;1.33;0.77;;;;;;;12.20;76.42;98709.34;5013639;28;20198;-76
2023/12/11 03:20:01;;;;;;;0.90;0.70;;;;;;;12.21;76.31;98707.59;5016637;28;20447;-76
2023/12/11 03:22:27;;;;;;;1.23;0.70;;;;;;;12.20;76.33;98704.09;5016635;28;20198;-76
2023/12/11 03:24:54;;;;;;;1.20;0.73;;;;;;;12.18;76.25;98688.44;5017921;28;20233;-76
2023/12/11 03:27:22;;;;;;;2.28;1.70;;;;;;;12.17;76.38;98680.66;5014311;28;21131;-76
2023/12/11 03:29:49;;;;;;;1.17;0.80;;;;;;;12.17;76.28;98688.56;5015772;28;20190;-76
2023/12/11 03:32:14;;;;;;;1.35;0.93;;;;;;;12.17;76.40;98685.94;5015570;28;20191;-76
2023/12/11 03:34:40;;;;;;;1.77;1.20;;;;;;;12.16;76.15;98665.84;5015523;28;20241;-76
2023/12/11 03:37:06;;;;;;;1.63;0.90;;;;;;;12.16;76.29;98682.47;5013304;28;21576;-76
2023/12/11 03:39:31;;;;;;;1.60;1.37;;;;;;;12.19;76.25;98691.91;5016932;28;20240;-76
2023/12/11 03:41:56;;;;;;;2.67;0.77;;;;;;;12.20;75.91;98690.94;5013945;28;20284;-76
2023/12/11 03:44:22;;;;;;;1.57;0.90;;;;;;;12.17;76.15;98692.03;5014085;28;20237;-76
2023/12/11 03:46:47;;;;;;;2.40;0.80;;;;;;;12.20;76.24;98698.00;5012541;28;20194;-76
2023/12/11 03:49:16;;;;;;;0.80;0.70;;;;;;;12.23;75.99;98703.00;5015758;28;20749;-76
2023/12/11 03:51:45;;;;;;;1.17;0.90;;;;;;;12.25;75.99;98709.81;5014022;28;20213;-75
2023/12/11 03:54:10;;;;;;;2.15;0.77;;;;;;;12.26;75.87;98727.28;5018538;28;20210;-76
2023/12/11 03:56:36;;;;;;;0.80;0.77;;;;;;;12.29;75.77;98719.13;5015416;28;20198;-75
2023/12/11 03:59:01;;;;;;;0.90;0.80;;;;;;;12.31;75.85;98722.47;5018434;28;20252;-76
2023/12/11 04:01:26;;;;;;;2.27;1.00;;;;;;;12.31;75.69;98735.63;5015824;28;21091;-76
2023/12/11 04:03:52;;;;;;;1.73;0.80;;;;;;;12.33;75.67;98724.97;5017674;28;20279;-75
2023/12/11 04:06:17;;;;;;;1.87;1.40;;;;;;;12.35;75.78;98713.34;5020563;28;20930;-76
2023/12/11 04:08:43;;;;;;;0.87;0.73;;;;;;;12.37;75.78;98716.69;5020542;28;20328;-75
2023/12/11 04:11:09;;;;;;;0.90;0.70;;;;;;;12.39;75.84;98719.16;5019087;28;20536;-75
2023/12/11 04:13:35;;;;;;;4.80;0.93;;;;;;;12.40;75.90;98713.78;5023242;28;20229;-75
2023/12/11 04:16:00;;;;;;;1.00;0.70;;;;;;;12.42;75.77;98712.81;5023685;28;20194;-76
2023/12/11 04:18:25;;;;;;;0.80;0.70;;;;;;;12.43;75.71;98699.50;5021650;28;20597;-76
2023/12/11 04:20:51;;;;;;;0.80;0.57;;;;;;;12.44;75.49;98706.44;5014960;28;20574;-76
2023/12/11 04:23:16;;;;;;;1.13;0.60;;;;;;;12.46;75.69;98712.41;5017929;28;20197;-76
2023/12/11 04:25:41;;;;;;;1.00;0.90;;;;;;;12.47;75.73;98703.53;5017536;28;20218;-75
2023/12/11 04:28:07;;;;;;;1.73;1.00;;;;;;;12.48;75.58;98689.41;5021422;28;20218;-75
2023/12/11 04:30:34;;;;;;;0.60;0.60;;;;;;;12.53;75.56;98679.31;5014929;28;20225;-76
2023/12/11 04:32:59;;;;;;;1.15;0.90;;;;;;;12.55;75.47;98666.84;5018069;28;21298;-76
2023/12/11 04:35:24;;;;;;;0.70;0.50;;;;;;;12.57;75.49;98664.91;5018132;28;20210;-76
2023/12/11 04:37:50;;;;;;;0.90;0.70;;;;;;;12.60;75.40;98661.19;5016509;28;20564;-76
2023/12/11 04:40:15;;;;;;;1.10;0.90;;;;;;;12.61;75.37;98654.97;5016655;28;20209;-76
2023/12/11 04:42:40;;;;;;;1.00;0.67;;;;;;;12.60;75.35;98646.19;5023431;28;20194;-76
2023/12/11 04:45:06;;;;;;;1.00;0.60;;;;;;;12.58;75.37;98655.19;5019477;28;20214;-76
2023/12/11 04:47:32;;;;;;;0.88;0.60;;;;;;;12.56;75.31;98663.25;5018585;28;20232;-76
2023/12/11 04:49:57;;;;;;;0.90;0.60;;;;;;;12.54;75.36;98675.72;5020897;28;20675;-75
2023/12/11 04:52:23;;;;;;;1.17;0.70;;;;;;;12.54;75.44;98666.97;5017353;28;20198;-76
2023/12/11 04:54:48;;;;;;;0.80;0.70;;;;;;;12.54;75.34;98665.19;5016680;28;20297;-76
2023/12/11 04:57:13;;;;;;;2.83;0.80;;;;;;;12.53;75.51;98657.38;5018415;28;20229;-76
2023/12/11 04:59:39;;;;;;;0.60;0.60;;;;;;;12.52;75.61;98646.03;5021790;28;20194;-76
2023/12/11 05:02:04;;;;;;;0.70;0.67;;;;;;;12.54;75.61;98640.63;5018993;28;20201;-76
2023/12/11 05:04:30;;;;;;;1.10;0.70;;;;;;;12.52;75.75;98632.03;5020491;28;20222;-76
2023/12/11 05:06:55;;;;;;;1.63;0.60;;;;;;;12.52;75.67;98634.66;5019898;28;20217;-76
2023/12/11 05:09:20;;;;;;;1.03;0.90;;;;;;;12.52;75.74;98630.22;5020508;28;20191;-76
2023/12/11 05:11:46;;;;;;;1.00;0.80;;;;;;;12.52;75.69;98624.97;5020498;28;20194;-76
2023/12/11 05:14:11;;;;;;;0.80;0.77;;;;;;;12.52;75.82;98648.66;5013049;28;20203;-76
2023/12/11 05:16:37;;;;;;;0.93;0.80;;;;;;;12.52;75.76;98663.63;5016735;28;20550;-76
2023/12/11 05:19:02;;;;;;;1.00;0.70;;;;;;;12.50;75.73;98661.16;5018093;28;20293;-77
2023/12/11 05:21:27;;;;;;;0.70;0.60;;;;;;;12.50;75.92;98652.41;5014285;28;20229;-77
2023/12/11 05:23:53;;;;;;;1.00;0.90;;;;;;;12.49;75.77;98650.75;5016203;28;20657;-77
2023/12/11 05:26:19;;;;;;;1.10;0.80;;;;;;;12.49;75.87;98650.75;5018436;28;20395;-77
2023/12/11 05:28:44;;;;;;;1.87;0.77;;;;;;;12.47;75.88;98642.97;5017459;28;20501;-77
2023/12/11 05:31:10;;;;;;;2.23;1.60;;;;;;;12.45;75.90;98650.19;5018353;28;20811;-77
2023/12/11 05:33:35;;;;;;;5.03;2.07;;;;;;;12.46;75.92;98653.66;5017178;28;20194;-76
2023/12/11 05:36:01;;;;;;;1.27;1.00;;;;;;;12.46;75.96;98645.75;5024325;28;20617;-76
2023/12/11 05:38:26;;;;;;;0.93;0.83;;;;;;;12.46;75.72;98645.75;5025399;28;20235;-76
2023/12/11 05:40:51;;;;;;;1.27;0.90;;;;;;;12.48;76.01;98651.72;5025949;28;20402;-76
2023/12/11 05:43:17;;;;;;;0.80;0.73;;;;;;;12.51;75.84;98644.38;5024760;28;20781;-76
2023/12/11 05:45:42;;;;;;;1.20;0.80;;;;;;;12.54;75.81;98651.19;5024388;28;20314;-76
2023/12/11 05:48:07;;;;;;;2.40;0.73;;;;;;;12.54;75.59;98649.38;5023662;28;20213;-76
2023/12/11 05:50:33;;;;;;;2.23;1.33;;;;;;;12.56;75.49;98636.91;5026355;28;20320;-76
2023/12/11 05:52:58;;;;;;;1.13;1.00;;;;;;;12.59;75.37;98627.91;5026927;28;20204;-76
2023/12/11 05:55:23;;;;;;;2.03;0.90;;;;;;;12.62;75.38;98632.91;5027226;28;20509;-77
2023/12/11 05:57:49;;;;;;;1.13;0.80;;;;;;;12.62;75.48;98630.28;5027083;28;20197;-77
2023/12/11 06:00:15;;;;;;;1.73;1.10;;;;;;;12.66;75.28;98646.63;5019333;28;20194;-76
2023/12/11 06:02:40;;;;;;;0.80;0.80;;;;;;;12.67;75.05;98643.88;5025303;28;20205;-76
2023/12/11 06:05:06;;;;;;;2.63;1.03;;;;;;;12.69;75.06;98646.34;5029371;28;20509;-76
2023/12/11 06:07:32;;;;;;;1.20;0.73;;;;;;;12.69;75.03;98657.75;5028271;28;20597;-76
2023/12/11 06:09:57;;;;;;;2.00;1.00;;;;;;;12.70;74.94;98669.94;5019722;28;20464;-76
2023/12/11 06:12:23;;;;;;;1.43;0.80;;;;;;;12.73;74.96;98674.13;5022352;28;20695;-76
2023/12/11 06:14:48;;;;;;;1.47;0.83;;;;;;;12.73;75.00;98671.47;5026458;28;20210;-76
2023/12/11 06:17:14;;;;;;;1.20;1.00;;;;;;;12.73;75.08;98642.50;5022801;28;20226;-76
2023/12/11 06:19:42;;;;;;;0.70;0.70;;;;;;;12.75;74.97;98630.03;5025297;28;20212;-76
2023/12/11 06:22:08;;;;;;;0.88;0.80;;;;;;;12.76;74.96;98616.69;5023826;28;20277;-76
2023/12/11 06:24:33;;;;;;;0.70;0.70;;;;;;;12.79;75.26;98610.31;5024891;28;20229;-76
2023/12/11 06:26:59;;;;;;;2.07;1.73;;;;;;;12.78;75.24;98624.47;5018715;28;20201;-76
2023/12/11 06:29:24;;;;;;;1.03;1.03;;;;;;;12.77;75.38;98620.16;5022195;28;20191;-77
2023/12/11 06:31:49;;;;;;;1.43;0.70;;;;;;;12.76;75.41;98619.34;5017869;28;20206;-76
2023/12/11 06:34:15;;;;;;;1.03;0.93;;;;;;;12.78;75.16;98613.94;5024517;28;20241;-76
2023/12/11 06:36:40;;;;;;;3.00;1.00;;;;;;;12.77;75.29;98612.25;5019503;28;20194;-76
2023/12/11 06:39:06;;;;;;;2.23;1.23;;;;;;;12.78;75.33;98603.41;5019574;28;20202;-76
2023/12/11 06:41:31;;;;;;;2.33;0.87;;;;;;;12.76;75.43;98595.63;5020244;28;20205;-76
2023/12/11 06:43:59;;;;;;;2.53;1.40;;;;;;;12.75;75.39;98587.88;5021037;28;20209;-76
2023/12/11 06:46:28;;;;;;;1.92;0.90;;;;;;;12.75;75.59;98572.88;5018595;28;20241;-76
2023/12/11 06:48:55;;;;;;;1.30;0.98;;;;;;;12.76;75.61;98585.09;5025468;28;20215;-76
2023/12/11 06:51:20;;;;;;;1.45;0.70;;;;;;;12.75;75.65;98567.63;5024470;28;20212;-76
2023/12/11 06:53:46;;;;;;;1.83;0.90;;;;;;;12.75;75.67;98550.97;5023796;28;20197;-76
2023/12/11 06:56:21;;;;;;;2.50;0.90;;;;;;;12.75;75.79;98545.72;5025416;28;20416;-76
2023/12/11 06:58:46;;;;;;;0.90;0.90;;;;;;;12.77;75.72;98549.88;5021396;28;20224;-76
2023/12/11 07:01:12;;;;;;;1.03;0.87;;;;;;;12.79;75.86;98539.19;5024675;28;20285;-76
2023/12/11 07:03:41;;;;;;;0.70;0.70;;;;;;;12.79;75.79;98541.81;5023744;28;20197;-76
2023/12/11 07:06:07;;;;;;;0.80;0.80;;;;;;;12.79;75.88;98545.28;5018602;28;20205;-77
2023/12/11 07:08:33;;;;;;;1.50;0.90;;;;;;;12.82;76.19;98546.81;5020471;28;20452;-76
2023/12/11 07:10:59;;;;;;;1.40;0.90;;;;;;;12.83;76.35;98559.03;5023091;28;20206;-76
2023/12/11 07:13:25;;;;;;;2.00;1.60;;;;;;;12.85;76.31;98570.25;5022807;28;20259;-76
2023/12/11 07:15:50;;;;;;;1.40;0.90;;;;;;;12.87;76.28;98578.03;5023656;28;20600;-76
2023/12/11 07:18:15;;;;;;;1.20;0.80;;;;;;;12.89;76.17;98584.00;5025924;28;20201;-77
2023/12/11 07:20:41;;;;;;;1.93;1.17;;;;;;;12.90;76.25;98596.19;5024995;28;20238;-77
2023/12/11 07:23:07;;;;;;;2.30;1.10;;;;;;;12.90;76.02;98594.38;5021121;28;20214;-77
2023/12/11 07:25:33;;;;;;;3.97;2.22;;;;;;;12.90;76.09;98602.28;5020163;28;20228;-77
2023/12/11 07:27:59;;;;;;;2.40;1.70;;;;;;;12.92;76.10;98620.63;5021742;28;20493;-77
2023/12/11 07:30:26;;;;;;;2.57;1.50;;;;;;;12.92;76.10;98637.25;5019548;28;20206;-77
2023/12/11 07:32:51;;;;;;;2.15;1.30;;;;;;;12.94;76.11;98642.41;5020611;28;20225;-77
2023/12/11 07:35:17;;;;;;;1.40;1.20;;;;;;;12.92;76.09;98653.06;5022149;28;20274;-77
2023/12/11 07:37:42;;;;;;;2.03;1.53;;;;;;;12.94;76.06;98669.59;5020316;28;20193;-77
2023/12/11 07:40:09;;;;;;;6.03;1.13;;;;;;;12.95;75.97;98647.53;5023688;28;20690;-78
2023/12/11 07:42:34;;;;;;;1.40;1.10;;;;;;;12.95;76.04;98631.72;5019478;28;20220;-78
2023/12/11 07:45:00;;;;;;;3.10;1.00;;;;;;;12.95;75.78;98622.97;5019872;28;20221;-78
2023/12/11 07:47:25;;;;;;;2.50;0.80;;;;;;;12.94;76.10;98614.25;5026246;28;20190;-77
2023/12/11 07:49:51;;;;;;;1.93;0.90;;;;;;;12.94;75.93;98613.41;5028749;28;20728;-77
2023/12/11 07:52:16;;;;;;;1.30;0.70;;;;;;;12.94;76.03;98608.97;5027838;28;20622;-77
2023/12/11 07:54:41;;;;;;;1.80;1.20;;;;;;;12.94;76.13;98616.06;5021075;28;20225;-77
2023/12/11 07:57:07;;;;;;;1.00;0.90;;;;;;;12.93;76.12;98606.47;5024139;28;20201;-77
2023/12/11 07:59:32;;;;;;;2.13;1.53;;;;;;;12.94;76.16;98595.78;5025583;28;20713;-77
2023/12/11 08:01:57;;;;;;;2.83;1.10;;;;;;;12.94;76.17;98598.44;5022685;28;20243;-77
2023/12/11 08:04:23;;;;;;;2.00;0.90;;;;;;;12.96;76.27;98595.63;5021323;28;20699;-77
2023/12/11 08:06:50;;;;;;;1.57;0.80;;;;;;;12.95;76.25;98579.00;5022281;28;20229;-77
2023/12/11 08:09:15;;;;;;;2.55;1.30;;;;;;;12.95;76.13;98557.91;5022967;28;20198;-77
2023/12/11 08:11:40;;;;;;;1.90;0.90;;;;;;;12.97;76.21;98528.78;5016686;28;20554;-77
2023/12/11 08:14:06;;;;;;;1.83;1.23;;;;;;;12.96;76.02;98500.75;5016605;28;20221;-79
2023/12/11 08:16:31;;;;;;;3.10;1.20;;;;;;;12.96;76.37;98501.59;5024153;28;20211;-77
2023/12/11 08:18:57;;;;;;;1.60;1.40;;;;;;;12.92;76.24;98510.75;5020827;28;20201;-78
2023/12/11 08:21:23;;;;;;;2.00;1.10;;;;;;;12.90;76.39;98544.31;5023171;28;20789;-77
2023/12/11 08:23:49;;;;;;;1.80;1.20;;;;;;;12.90;76.47;98564.56;5017383;28;20559;-77
2023/12/11 08:26:19;;;;;;;1.17;1.05;;;;;;;12.87;76.33;98581.50;5019159;28;20209;-77
2023/12/11 08:28:45;;;;;;;2.05;1.40;;;;;;;12.87;76.33;98618.38;5020326;28;20323;-78
2023/12/11 08:31:11;;;;;;;2.10;1.20;;;;;;;12.87;76.33;98628.09;5020854;28;20297;-77
2023/12/11 08:33:37;;;;;;;2.57;1.73;;;;;;;12.85;76.20;98651.94;5022957;28;20293;-77
2023/12/11 08:36:03;;;;;;;1.63;1.20;;;;;;;12.84;76.10;98653.75;5019984;28;20463;-76
2023/12/11 08:38:29;;;;;;;2.75;1.40;;;;;;;12.84;76.02;98645.84;5016593;28;20213;-77
2023/12/11 08:40:55;;;;;;;1.27;0.90;;;;;;;12.84;75.86;98645.00;5021638;28;20235;-77
2023/12/11 08:43:20;;;;;;;3.83;1.47;;;;;;;12.85;75.79;98638.75;5023505;28;20509;-77
2023/12/11 08:45:45;;;;;;;2.20;1.23;;;;;;;12.84;75.63;98618.66;5025748;28;20207;-77
2023/12/11 08:48:11;;;;;;;1.47;1.23;;;;;;;12.86;75.72;98631.72;5019705;28;20727;-77
2023/12/11 08:50:36;;;;;;;2.70;1.77;;;;;;;12.83;75.51;98619.66;5025997;28;20262;-77
2023/12/11 08:53:03;;;;;;;1.37;1.17;;;;;;;12.83;75.69;98643.38;5020683;28;20581;-77
2023/12/11 08:55:29;;;;;;;2.63;1.38;;;;;;;12.83;75.66;98611.75;5017263;28;20702;-76
2023/12/11 08:57:55;;;;;;;1.47;1.07;;;;;;;12.84;75.43;98619.50;5012850;28;20228;-76
2023/12/11 09:00:21;;;;;;;2.03;1.10;;;;;;;12.83;75.35;98624.91;5011757;28;22950;-76
2023/12/11 09:02:47;;;;;;;3.95;1.25;;;;;;;12.86;75.33;98626.44;5011112;28;20959;-77
2023/12/11 09:05:12;;;;;;;0.80;0.70;;;;;;;12.86;75.23;98627.28;5017181;28;20217;-76
2023/12/11 09:07:38;;;;;;;1.40;1.10;;;;;;;12.89;75.13;98628.81;5017696;28;20973;-76
2023/12/11 09:10:04;;;;;;;1.70;1.20;;;;;;;12.87;75.05;98628.94;5016949;28;20569;-77
2023/12/11 09:12:30;;;;;;;1.80;1.02;;;;;;;12.89;75.01;98652.53;5013338;28;20245;-77
2023/12/11 09:14:55;;;;;;;2.70;1.50;;;;;;;12.90;75.02;98662.91;5013330;28;20293;-77
2023/12/11 09:17:21;;;;;;;2.00;1.17;;;;;;;12.91;75.14;98658.47;5014311;28;20197;-77
2023/12/11 09:22:14;;;;;;;1.98;0.90;;;;;;;12.92;75.03;98624.09;4999044;28;20601;-81
2023/12/11 09:24:40;;;;;;;3.00;1.25;;;;;;;12.94;74.99;98634.50;5009948;28;20447;-81
2023/12/11 09:27:08;;;;;;;2.07;1.10;;;;;;;12.96;74.92;98643.94;5017848;28;20229;-79
2023/12/11 09:29:33;;;;;;;1.35;0.93;;;;;;;12.95;74.84;98642.25;5022549;28;20519;-81
2023/12/11 09:31:59;;;;;;;1.77;1.10;;;;;;;12.97;74.75;98639.50;5025392;28;20496;-81
2023/12/11 09:34:27;;;;;;;1.00;0.90;;;;;;;12.98;74.58;98636.72;5023250;28;20485;-81
2023/12/11 09:36:53;;;;;;;0.82;0.82;;;;;;;13.00;74.02;98636.59;5024577;28;20893;-80
2023/12/11 09:39:18;;;;;;;0.70;0.60;;;;;;;13.00;73.71;98626.88;5017000;28;20615;-80
2023/12/11 09:41:44;;;;;;;4.60;1.03;;;;;;;13.02;73.53;98624.09;5020841;28;20209;-81
2023/12/11 09:44:10;;;;;;;1.33;1.08;;;;;;;13.01;73.21;98619.78;5020624;28;20193;-79
2023/12/11 09:47:01;;;;;;;2.05;0.98;;;;;;;13.01;73.00;98633.78;5021375;28;20217;-81
2023/12/11 09:49:27;;;;;;;11.40;6.50;;;;;;;13.02;72.82;98659.22;5026612;28;20317;-79
2023/12/11 09:51:53;;;;;;;7.10;3.35;;;;;;;12.99;72.57;98642.84;5022208;28;20674;-79
2023/12/11 09:54:18;;;;;;;6.00;3.70;;;;;;;12.97;72.53;98666.69;5018238;28;21413;-77
2023/12/11 09:56:44;;;;;;;2.73;1.13;;;;;;;12.98;72.44;98684.16;5021509;28;21047;-79
2023/12/11 09:59:10;;;;;;;1.53;1.43;;;;;;;12.98;72.46;98694.69;5022067;28;20217;-82
2023/12/11 10:01:39;;;;;;;1.85;1.25;;;;;;;12.96;72.42;98680.84;5021376;28;20209;-78
2023/12/11 10:04:10;;;;;;;1.30;1.20;;;;;;;12.98;72.35;98693.88;5020091;28;20193;-80
2023/12/11 10:06:53;;;;;;;1.65;1.17;;;;;;;12.97;72.19;98679.88;5018532;28;20179;-80
2023/12/11 10:09:34;;;;;;;0.93;0.82;;;;;;;12.98;72.07;98726.34;5015188;28;20598;-78
2023/12/11 10:12:12;;;;;;;6.00;1.10;;;;;;;12.97;71.89;98697.50;5018202;28;20204;-78
2023/12/11 10:15:00;;;;;;;1.42;0.90;;;;;;;13.00;71.69;98702.47;5020035;28;20554;-78
2023/12/11 10:17:26;;;;;;;1.10;1.00;;;;;;;13.02;71.67;98695.28;5023579;28;20205;-79
2023/12/11 10:19:56;;;;;;;0.90;0.80;;;;;;;13.02;71.64;98675.03;5022444;28;20666;-79
2023/12/11 10:22:41;;;;;;;1.50;0.80;;;;;;;13.02;71.39;98701.38;5014741;28;20352;-79
2023/12/11 10:25:29;;;;;;;0.80;0.70;;;;;;;13.01;71.23;98685.69;5016088;28;20577;-78
2023/12/11 10:28:10;;;;;;;0.93;0.80;;;;;;;12.99;71.19;98693.75;5014201;28;20204;-80
2023/12/11 10:30:49;;;;;;;1.10;1.00;;;;;;;12.96;71.08;98667.66;5021505;28;20214;-77
2023/12/11 10:33:15;;;;;;;0.93;0.70;;;;;;;12.97;71.18;98660.59;5020163;28;20201;-79
2023/12/11 10:35:41;;;;;;;0.70;0.60;;;;;;;12.96;71.10;98694.03;5021023;28;20217;-78
2023/12/11 11:42:40;;;;;;;1.90;1.00;;;;;;;12.95;72.62;98731.06;5018663;28;20232;-78
2023/12/11 11:45:11;;;;;;;1.90;1.20;;;;;;;12.97;72.32;98724.69;5023908;28;20213;-78
2023/12/11 11:47:36;;;;;;;1.45;1.02;;;;;;;12.98;72.28;98736.88;5024831;28;20715;-80
2023/12/11 11:50:05;;;;;;;1.43;1.30;;;;;;;12.99;72.18;98732.47;5023553;28;20217;-80
2023/12/11 11:52:31;;;;;;;1.23;0.90;;;;;;;13.00;72.17;98729.69;5021963;28;20197;-79
2023/12/11 11:55:18;;;;;;;2.47;1.20;;;;;;;13.00;72.16;98734.13;5023225;28;20217;-78
2023/12/11 11:57:44;;;;;;;2.70;0.90;;;;;;;13.03;72.06;98745.22;5023850;28;20257;-80
2023/12/11 12:00:09;;;;;;;1.40;1.30;;;;;;;13.05;71.90;98747.75;5024417;28;20561;-79
2023/12/11 12:02:35;;;;;;;2.45;1.38;;;;;;;13.07;71.94;98746.63;5022450;28;20629;-78
2023/12/11 12:05:08;;;;;;;2.50;1.30;;;;;;;13.12;71.68;98750.66;5023840;28;20375;-80
2023/12/11 12:07:37;;;;;;;1.30;0.90;;;;;;;13.14;71.89;98746.09;5021590;28;20236;-79
2023/12/11 12:10:03;;;;;;;3.90;1.50;;;;;;;13.14;71.58;98740.81;5023183;28;20214;-79
2023/12/11 12:12:28;;;;;;;1.40;0.90;;;;;;;13.11;71.50;98735.81;5020875;28;20231;-78
2023/12/11 12:15:02;;;;;;;2.40;1.37;;;;;;;13.11;71.58;98743.72;5022135;28;20857;-80
2023/12/11 12:17:27;;;;;;;2.53;2.05;;;;;;;13.12;71.39;98740.09;5023250;28;20332;-78
2023/12/11 12:19:52;;;;;;;1.10;0.83;;;;;;;13.10;71.39;98737.63;5025218;28;20658;-78
2023/12/11 12:22:18;;;;;;;1.70;1.10;;;;;;;13.10;71.54;98731.53;5021251;28;20635;-80
2023/12/11 12:24:48;;;;;;;2.03;1.27;;;;;;;13.11;71.30;98741.91;5023050;28;20213;-78
2023/12/11 12:27:20;;;;;;;2.17;1.20;;;;;;;13.11;71.27;98751.63;5022103;28;20595;-79
2023/12/11 12:29:46;;;;;;;2.47;1.30;;;;;;;13.12;71.16;98742.75;5021540;28;20197;-78
2023/12/11 12:32:14;;;;;;;1.10;1.00;;;;;;;13.11;71.03;98746.38;5025158;28;20201;-78
2023/12/11 12:34:43;;;;;;;1.40;1.10;;;;;;;13.12;70.83;98758.56;5024219;28;20445;-79
2023/12/11 12:37:09;;;;;;;1.23;1.00;;;;;;;13.12;70.71;98756.75;5026057;28;20632;-79